Witmer, Pennsylvania
Current Conditions -  °F | °C
As of 8:53 PM on Tuesday 21 Oct 2014 (Local Time) from KLNS Reporting Station
Broken Clouds Broken Clouds  
Wind Chill: 57°   Ceiling: 5500
Heat Index: 57°   Visibility: 10mi
Dew Point: 48°   Wind: 6mph
Humidity: 72%   Direction: 320°NW
Pressure: 29.89"   Gusts: NA
Location:  40.05°N, 76.21°W
Report Text: KLNS 220053Z 32005KT 10SM BKN055 14/09 A2989 RMK AO2 SLP120 T01390089
Loading
Personal Weather Stations






























Interactive Weather Map New forecast layout! Learn more

10-Day Weather Forecast

Advertisements
Track Severe Weather on mobile